Time;durP1;ratioP1;P1;durP2;ratioP2;P2;SDS_P1;SDS_P2;PMS_P1;PMS_P2;Temp;Humidity;BMP_temperature;BMP_pressure;BME280_temperature;BME280_humidity;BME280_pressure;Samples;Min_cycle;Max_cycle;Signal;HPM_P1;HPM_P2
2021/06/20 00:00:56;;;;;;;;;;;16.10;99.90;;;;;;5053577;28;19909;-83
2021/06/20 00:03:22;;;;;;;;;;;16.10;99.90;;;;;;5036568;28;19932;-79
2021/06/20 00:05:53;;;;;;;;;;;16.20;99.90;;;;;;5081738;28;19962;-83
2021/06/20 00:08:19;;;;;;;;;;;16.20;99.90;;;;;;5054812;28;19995;-83
2021/06/20 00:10:45;;;;;;;;;;;16.30;99.90;;;;;;5055906;28;20004;-83
2021/06/20 00:13:10;;;;;;;;;;;16.30;99.90;;;;;;5038953;28;19920;-84
2021/06/20 00:15:37;;;;;;;;;;;16.40;99.90;;;;;;5054381;28;19912;-83
2021/06/20 00:18:03;;;;;;;;;;;16.40;99.90;;;;;;5060150;28;19978;-81
2021/06/20 00:20:30;;;;;;;;;;;16.40;99.90;;;;;;5054550;28;20291;-80
2021/06/20 00:22:57;;;;;;;;;;;16.50;99.90;;;;;;5035208;28;20003;-75
2021/06/20 00:25:23;;;;;;;;;;;16.60;99.90;;;;;;5060322;28;19948;-81
2021/06/20 00:27:49;;;;;;;;;;;16.50;99.90;;;;;;5029601;28;19995;-84
2021/06/20 00:30:17;;;;;;;;;;;16.50;99.90;;;;;;5069730;28;19913;-82
2021/06/20 00:32:43;;;;;;;;;;;16.60;99.90;;;;;;5057026;28;19909;-82
2021/06/20 00:35:09;;;;;;;;;;;16.60;99.90;;;;;;5054562;28;19924;-81
2021/06/20 00:37:35;;;;;;;;;;;16.60;99.90;;;;;;5072239;28;19909;-80
2021/06/20 00:40:00;;;;;;;;;;;16.60;99.90;;;;;;5040219;28;20218;-82
2021/06/20 00:42:26;;;;;;;;;;;16.70;99.90;;;;;;5061186;28;21531;-82
2021/06/20 00:44:52;;;;;;;;;;;16.70;99.90;;;;;;5052593;28;19909;-82
2021/06/20 00:47:18;;;;;;;;;;;16.70;99.90;;;;;;5058160;28;19958;-83
2021/06/20 00:49:44;;;;;;;;;;;16.70;99.90;;;;;;5059185;28;19999;-86
2021/06/20 00:52:09;;;;;;;;;;;16.80;99.90;;;;;;5058490;28;20248;-81
2021/06/20 00:54:35;;;;;;;;;;;16.80;99.90;;;;;;5062246;28;19920;-87
2021/06/20 00:57:01;;;;;;;;;;;16.80;99.90;;;;;;5059172;28;19919;-80
2021/06/20 00:59:30;;;;;;;;;;;16.80;99.90;;;;;;5058533;28;20291;-90
2021/06/20 01:01:55;;;;;;;;;;;16.80;99.90;;;;;;5057609;28;19912;-78
2021/06/20 01:04:21;;;;;;;;;;;16.90;99.90;;;;;;5056238;28;20275;-77
2021/06/20 01:06:47;;;;;;;;;;;16.90;99.90;;;;;;5041623;28;19908;-87
2021/06/20 01:09:12;;;;;;;;;;;17.00;99.90;;;;;;5058933;28;19905;-87
2021/06/20 01:11:38;;;;;;;;;;;17.00;99.90;;;;;;5057936;28;20318;-83
2021/06/20 01:14:03;;;;;;;;;;;17.00;99.90;;;;;;5040800;28;19909;-89
2021/06/20 01:16:30;;;;;;;;;;;17.10;99.90;;;;;;5063267;28;20214;-83
2021/06/20 01:18:56;;;;;;;;;;;17.10;99.90;;;;;;5042167;28;19904;-84
2021/06/20 01:21:22;;;;;;;;;;;17.10;99.90;;;;;;5055079;28;20067;-85
2021/06/20 01:23:47;;;;;;;;;;;17.20;99.90;;;;;;5040162;28;19971;-86
2021/06/20 01:26:13;;;;;;;;;;;17.20;99.90;;;;;;5059498;28;19912;-85
2021/06/20 01:28:52;;;;;;;;;;;17.30;99.90;;;;;;5044720;28;19996;-83
2021/06/20 01:31:21;;;;;;;;;;;17.30;99.90;;;;;;5059923;28;20007;-81
2021/06/20 01:33:46;;;;;;;;;;;17.20;99.90;;;;;;5057079;28;19909;-82
2021/06/20 01:36:13;;;;;;;;;;;17.20;99.90;;;;;;5062728;28;19923;-80
2021/06/20 01:38:39;;;;;;;;;;;17.20;99.90;;;;;;5032646;28;19971;-85
2021/06/20 01:41:06;;;;;;;;;;;17.20;99.90;;;;;;5065668;28;19974;-80
2021/06/20 01:43:32;;;;;;;;;;;17.20;99.90;;;;;;5057135;28;19955;-79
2021/06/20 01:45:57;;;;;;;;;;;17.10;99.90;;;;;;5072066;28;19944;-82
2021/06/20 01:48:23;;;;;;;;;;;17.10;99.90;;;;;;5071248;28;20600;-81
2021/06/20 01:50:49;;;;;;;;;;;17.20;99.90;;;;;;5056898;28;19954;-85
2021/06/20 01:53:15;;;;;;;;;;;17.30;99.90;;;;;;5057388;28;19920;-81
2021/06/20 01:55:42;;;;;;;;;;;17.20;99.90;;;;;;5068063;28;20273;-79
2021/06/20 01:58:09;;;;;;;;;;;17.20;99.90;;;;;;5043288;28;20314;-81
2021/06/20 02:00:36;;;;;;;;;;;17.30;99.90;;;;;;5043800;28;19999;-80
2021/06/20 02:03:06;;;;;;;;;;;17.30;99.90;;;;;;5052369;28;19944;-81
2021/06/20 02:05:31;;;;;;;;;;;17.40;99.90;;;;;;5041870;28;19913;-76
2021/06/20 02:07:57;;;;;;;;;;;17.30;99.90;;;;;;5055591;28;19920;-82
2021/06/20 02:10:22;;;;;;;;;;;17.20;99.90;;;;;;5058366;28;19985;-82
2021/06/20 02:12:48;;;;;;;;;;;17.20;99.90;;;;;;5057954;28;19908;-82
2021/06/20 02:15:16;;;;;;;;;;;17.10;99.90;;;;;;5065629;28;19909;-81
2021/06/20 02:17:41;;;;;;;;;;;17.20;99.90;;;;;;5051047;28;19913;-77
2021/06/20 02:20:08;;;;;;;;;;;17.10;99.90;;;;;;5047542;28;19905;-78
2021/06/20 02:22:34;;;;;;;;;;;17.10;99.90;;;;;;5057025;28;19913;-77
2021/06/20 02:25:00;;;;;;;;;;;16.90;99.90;;;;;;5056334;28;19912;-76
2021/06/20 02:27:26;;;;;;;;;;;16.50;99.90;;;;;;5038624;28;19971;-76
2021/06/20 02:29:53;;;;;;;;;;;16.30;99.90;;;;;;5057267;28;19908;-77
2021/06/20 02:32:18;;;;;;;;;;;16.30;99.90;;;;;;5043586;28;19912;-75
2021/06/20 02:34:44;;;;;;;;;;;16.20;99.90;;;;;;5055475;28;20315;-75
2021/06/20 02:37:10;;;;;;;;;;;16.10;99.90;;;;;;5071007;28;19909;-75
2021/06/20 02:39:37;;;;;;;;;;;16.00;99.90;;;;;;5054229;28;20231;-75
2021/06/20 02:42:03;;;;;;;;;;;15.90;99.90;;;;;;5057671;28;20353;-76
2021/06/20 02:44:28;;;;;;;;;;;15.80;99.90;;;;;;5051507;28;19916;-76
2021/06/20 02:46:57;;;;;;;;;;;15.70;99.90;;;;;;5055754;28;19908;-76
2021/06/20 02:49:23;;;;;;;;;;;15.70;99.90;;;;;;5053268;28;19980;-74
2021/06/20 02:51:48;;;;;;;;;;;15.60;99.90;;;;;;5057291;28;19936;-75
2021/06/20 02:54:14;;;;;;;;;;;15.60;99.90;;;;;;5041305;28;20044;-77
2021/06/20 02:56:39;;;;;;;;;;;15.60;99.90;;;;;;5054975;28;20204;-76
2021/06/20 02:59:05;;;;;;;;;;;15.50;99.90;;;;;;5054700;28;19909;-76
2021/06/20 03:01:31;;;;;;;;;;;15.60;99.90;;;;;;5055453;28;19919;-77
2021/06/20 03:03:56;;;;;;;;;;;15.60;99.90;;;;;;5055286;28;20287;-80
2021/06/20 03:06:22;;;;;;;;;;;15.60;99.90;;;;;;5056605;28;19962;-76
2021/06/20 03:08:48;;;;;;;;;;;15.60;99.90;;;;;;5070058;28;20302;-80
2021/06/20 03:11:13;;;;;;;;;;;15.60;99.90;;;;;;5034343;28;20015;-74
2021/06/20 03:13:39;;;;;;;;;;;15.60;99.90;;;;;;5051552;28;19954;-74
2021/06/20 03:16:05;;;;;;;;;;;15.60;99.90;;;;;;5064527;28;20266;-77
2021/06/20 03:18:31;;;;;;;;;;;15.60;99.90;;;;;;5045260;28;19916;-76
2021/06/20 03:20:56;;;;;;;;;;;15.60;99.90;;;;;;5037717;28;20310;-79
2021/06/20 03:23:22;;;;;;;;;;;15.60;99.90;;;;;;5053031;28;19913;-76
2021/06/20 03:25:47;;;;;;;;;;;15.60;99.90;;;;;;5051662;28;20291;-77
2021/06/20 03:28:13;;;;;;;;;;;15.60;99.90;;;;;;5051058;28;20303;-75
2021/06/20 03:30:39;;;;;;;;;;;15.70;99.90;;;;;;5065373;28;19942;-76
2021/06/20 03:33:05;;;;;;;;;;;15.70;99.90;;;;;;5043935;28;20180;-76
2021/06/20 03:35:30;;;;;;;;;;;15.80;99.90;;;;;;5054973;28;19970;-75
2021/06/20 03:37:56;;;;;;;;;;;15.70;99.90;;;;;;5052327;28;19936;-75
2021/06/20 03:40:22;;;;;;;;;;;15.70;99.90;;;;;;5044220;28;19913;-74
2021/06/20 03:42:47;;;;;;;;;;;15.70;99.90;;;;;;5054900;28;19917;-76
2021/06/20 03:45:13;;;;;;;;;;;15.70;99.90;;;;;;5052429;28;19909;-76
2021/06/20 03:47:38;;;;;;;;;;;15.60;99.90;;;;;;5035206;28;19990;-75
2021/06/20 03:50:07;;;;;;;;;;;15.60;99.90;;;;;;5055416;28;20697;-76
2021/06/20 03:52:32;;;;;;;;;;;15.60;99.90;;;;;;5034090;28;20001;-76
2021/06/20 03:54:58;;;;;;;;;;;15.60;99.90;;;;;;5066321;28;19967;-74
2021/06/20 03:57:24;;;;;;;;;;;15.60;99.90;;;;;;5049588;28;19909;-75
2021/06/20 03:59:50;;;;;;;;;;;15.50;99.90;;;;;;5054699;28;20348;-75
2021/06/20 04:02:16;;;;;;;;;;;15.50;99.90;;;;;;5060975;28;20302;-76
2021/06/20 04:04:42;;;;;;;;;;;15.50;99.90;;;;;;5057232;28;19916;-75
2021/06/20 04:07:08;;;;;;;;;;;15.50;99.90;;;;;;5060455;28;19916;-75
2021/06/20 04:09:34;;;;;;;;;;;15.50;99.90;;;;;;5061611;28;20011;-76
2021/06/20 04:11:59;;;;;;;;;;;15.50;99.90;;;;;;5046514;28;19995;-76
2021/06/20 04:14:25;;;;;;;;;;;15.50;99.90;;;;;;5049010;28;19912;-76
2021/06/20 04:16:50;;;;;;;;;;;15.50;99.90;;;;;;5061130;28;19913;-76
2021/06/20 04:19:16;;;;;;;;;;;15.60;99.90;;;;;;5042084;28;19917;-75
2021/06/20 04:21:42;;;;;;;;;;;15.50;99.90;;;;;;5058318;28;19926;-75
2021/06/20 04:24:08;;;;;;;;;;;15.50;99.90;;;;;;5062559;28;19915;-76
2021/06/20 04:26:33;;;;;;;;;;;15.50;99.90;;;;;;5061232;28;20254;-76
2021/06/20 04:28:59;;;;;;;;;;;15.50;99.90;;;;;;5048121;28;19912;-77
2021/06/20 04:31:25;;;;;;;;;;;15.50;99.90;;;;;;5047127;28;19919;-77
2021/06/20 04:33:50;;;;;;;;;;;15.50;99.90;;;;;;5050134;28;19923;-77
2021/06/20 04:36:16;;;;;;;;;;;15.40;99.90;;;;;;5060212;28;19920;-77
2021/06/20 04:38:43;;;;;;;;;;;15.50;99.90;;;;;;5062150;28;19915;-78
2021/06/20 04:41:12;;;;;;;;;;;15.50;99.90;;;;;;5061283;28;19908;-77
2021/06/20 04:46:12;;;;;;;;;;;15.40;99.90;;;;;;5059934;28;19944;-79
2021/06/20 04:48:38;;;;;;;;;;;15.40;99.90;;;;;;5048011;28;19908;-78
2021/06/20 04:51:04;;;;;;;;;;;15.40;99.90;;;;;;5062464;28;20046;-78
2021/06/20 04:53:29;;;;;;;;;;;15.40;99.90;;;;;;5060868;28;19909;-78
2021/06/20 04:55:55;;;;;;;;;;;15.50;99.90;;;;;;5061273;28;19927;-78
2021/06/20 04:58:20;;;;;;;;;;;15.50;99.90;;;;;;5061583;28;19923;-78
2021/06/20 05:00:46;;;;;;;;;;;15.60;99.90;;;;;;5057087;28;19912;-78
2021/06/20 05:03:11;;;;;;;;;;;15.60;99.90;;;;;;5036271;28;19954;-78
2021/06/20 05:05:37;;;;;;;;;;;15.60;99.90;;;;;;5035953;28;19909;-78
2021/06/20 05:08:02;;;;;;;;;;;15.60;99.90;;;;;;5054751;28;19905;-78
2021/06/20 05:10:28;;;;;;;;;;;15.60;99.90;;;;;;5035561;28;20299;-79
2021/06/20 05:12:54;;;;;;;;;;;15.60;99.90;;;;;;5043901;28;19916;-78
2021/06/20 05:15:20;;;;;;;;;;;15.60;99.90;;;;;;5053697;28;19917;-78
2021/06/20 05:17:45;;;;;;;;;;;15.60;99.90;;;;;;5066498;28;19963;-77
2021/06/20 05:20:11;;;;;;;;;;;15.70;99.90;;;;;;5064435;28;20302;-77
2021/06/20 05:22:37;;;;;;;;;;;15.90;99.90;;;;;;5047354;28;19912;-77
2021/06/20 05:25:03;;;;;;;;;;;15.90;99.90;;;;;;5070352;28;19908;-78
2021/06/20 05:27:29;;;;;;;;;;;15.90;99.90;;;;;;5055571;28;19908;-78
2021/06/20 05:29:54;;;;;;;;;;;15.90;99.90;;;;;;5039235;28;20284;-79
2021/06/20 05:32:20;;;;;;;;;;;15.90;99.90;;;;;;5059116;28;20255;-78
2021/06/20 05:34:45;;;;;;;;;;;16.00;99.90;;;;;;5061041;28;20250;-79
2021/06/20 05:37:11;;;;;;;;;;;16.00;99.90;;;;;;5040737;28;20189;-78
2021/06/20 05:39:36;;;;;;;;;;;16.10;99.90;;;;;;5037881;28;19909;-80
2021/06/20 05:42:02;;;;;;;;;;;16.20;99.90;;;;;;5057455;28;19981;-80
2021/06/20 05:44:29;;;;;;;;;;;16.20;99.90;;;;;;5055755;28;19913;-78
2021/06/20 05:46:54;;;;;;;;;;;16.20;99.90;;;;;;5056044;28;19911;-80
2021/06/20 05:49:20;;;;;;;;;;;16.10;99.90;;;;;;5056994;28;19912;-80
2021/06/20 05:51:46;;;;;;;;;;;16.10;99.90;;;;;;5059877;28;20007;-80
2021/06/20 05:54:11;;;;;;;;;;;16.10;99.90;;;;;;5055997;28;19912;-79
2021/06/20 05:56:37;;;;;;;;;;;16.10;99.90;;;;;;5060111;28;19908;-80
2021/06/20 05:59:03;;;;;;;;;;;16.10;99.90;;;;;;5056257;28;19909;-80
2021/06/20 06:01:29;;;;;;;;;;;16.20;99.90;;;;;;5056207;28;19905;-79
2021/06/20 06:03:55;;;;;;;;;;;16.30;99.90;;;;;;5056467;28;20188;-79
2021/06/20 06:06:20;;;;;;;;;;;16.40;99.90;;;;;;5042700;28;19966;-78
2021/06/20 06:08:46;;;;;;;;;;;16.40;99.90;;;;;;5058405;28;20192;-78
2021/06/20 06:11:11;;;;;;;;;;;16.40;99.90;;;;;;5071103;28;19980;-78
2021/06/20 06:13:37;;;;;;;;;;;16.50;99.90;;;;;;5071679;28;19909;-78
2021/06/20 06:16:03;;;;;;;;;;;16.40;99.90;;;;;;5070719;28;19944;-78
2021/06/20 06:18:28;;;;;;;;;;;16.50;99.90;;;;;;5056045;28;19913;-78
2021/06/20 06:20:54;;;;;;;;;;;16.60;99.90;;;;;;5060211;28;19927;-78
2021/06/20 06:23:19;;;;;;;;;;;16.60;99.90;;;;;;5033970;28;20208;-78
2021/06/20 06:25:45;;;;;;;;;;;16.70;99.90;;;;;;5035014;28;19913;-78
2021/06/20 06:28:11;;;;;;;;;;;16.70;99.90;;;;;;5035522;28;19990;-78
2021/06/20 06:30:36;;;;;;;;;;;16.70;99.90;;;;;;5034198;28;20021;-78
2021/06/20 06:33:04;;;;;;;;;;;16.80;99.90;;;;;;5032763;28;20245;-78
2021/06/20 06:35:30;;;;;;;;;;;16.80;99.90;;;;;;5034928;28;19921;-78
2021/06/20 06:37:57;;;;;;;;;;;16.90;99.90;;;;;;5035290;28;19924;-78
2021/06/20 06:40:22;;;;;;;;;;;17.00;99.90;;;;;;5026733;28;19996;-78
2021/06/20 06:42:48;;;;;;;;;;;17.20;99.90;;;;;;5049693;28;19996;-77
2021/06/20 06:45:16;;;;;;;;;;;17.30;99.90;;;;;;5032755;28;19975;-79
2021/06/20 06:47:42;;;;;;;;;;;17.40;99.90;;;;;;5035487;28;20273;-78
2021/06/20 06:50:08;;;;;;;;;;;17.40;99.90;;;;;;5035157;28;19908;-78
2021/06/20 06:52:34;;;;;;;;;;;17.40;99.90;;;;;;5034334;28;19905;-78
2021/06/20 06:54:59;;;;;;;;;;;17.40;99.90;;;;;;5035791;28;19909;-79
2021/06/20 06:57:25;;;;;;;;;;;17.40;99.90;;;;;;5034958;28;19913;-78
2021/06/20 06:59:51;;;;;;;;;;;17.50;99.90;;;;;;5035436;28;19905;-79
2021/06/20 07:02:17;;;;;;;;;;;17.50;99.90;;;;;;5033757;28;19955;-78
2021/06/20 07:04:43;;;;;;;;;;;17.50;99.90;;;;;;5034783;28;19916;-78
2021/06/20 07:07:09;;;;;;;;;;;17.50;99.90;;;;;;5033486;28;19909;-78
2021/06/20 07:09:34;;;;;;;;;;;17.50;99.90;;;;;;5034352;28;20024;-78
2021/06/20 07:12:01;;;;;;;;;;;17.50;99.90;;;;;;5031647;28;19920;-78
2021/06/20 07:14:27;;;;;;;;;;;17.50;99.90;;;;;;5033734;28;19905;-78
2021/06/20 07:16:53;;;;;;;;;;;17.50;99.90;;;;;;5035499;28;19908;-78
2021/06/20 07:19:18;;;;;;;;;;;17.60;99.90;;;;;;5033518;28;20250;-77
2021/06/20 07:21:44;;;;;;;;;;;17.70;99.90;;;;;;5050328;28;19920;-78
2021/06/20 07:24:10;;;;;;;;;;;17.80;99.90;;;;;;5049465;28;20359;-78
2021/06/20 07:26:36;;;;;;;;;;;18.00;99.90;;;;;;5054531;28;20238;-78
2021/06/20 07:29:02;;;;;;;;;;;18.10;99.90;;;;;;5050854;28;19920;-78
2021/06/20 07:31:28;;;;;;;;;;;18.20;99.90;;;;;;5035859;28;19905;-80
2021/06/20 07:33:54;;;;;;;;;;;18.20;99.90;;;;;;5037108;28;20362;-80
2021/06/20 07:36:19;;;;;;;;;;;18.20;99.90;;;;;;5050525;28;20003;-79
2021/06/20 07:38:45;;;;;;;;;;;18.30;99.90;;;;;;5057363;28;20608;-79
2021/06/20 07:41:12;;;;;;;;;;;18.30;99.90;;;;;;5041231;28;19916;-78
2021/06/20 07:43:37;;;;;;;;;;;18.30;99.90;;;;;;5052703;28;19930;-78
2021/06/20 07:46:03;;;;;;;;;;;18.20;99.90;;;;;;5041536;28;20312;-80
2021/06/20 07:48:29;;;;;;;;;;;18.30;99.90;;;;;;5053334;28;19995;-80
2021/06/20 07:50:55;;;;;;;;;;;18.30;99.90;;;;;;5052358;28;19912;-79
2021/06/20 07:53:21;;;;;;;;;;;18.20;99.90;;;;;;5051770;28;19974;-78
2021/06/20 07:55:46;;;;;;;;;;;18.30;99.90;;;;;;5036858;28;19913;-79
2021/06/20 07:58:12;;;;;;;;;;;18.30;99.90;;;;;;5073580;28;19908;-79
2021/06/20 08:00:37;;;;;;;;;;;18.30;99.90;;;;;;5036722;28;19912;-79
2021/06/20 08:03:03;;;;;;;;;;;18.30;99.90;;;;;;5069435;28;20003;-82
2021/06/20 08:05:29;;;;;;;;;;;18.40;99.90;;;;;;5048419;28;20266;-81
2021/06/20 08:07:54;;;;;;;;;;;18.50;99.90;;;;;;5036185;28;20324;-80
2021/06/20 08:10:20;;;;;;;;;;;18.60;99.90;;;;;;5054630;28;20017;-83
2021/06/20 08:12:45;;;;;;;;;;;18.60;99.90;;;;;;5056665;28;19905;-86
2021/06/20 08:15:11;;;;;;;;;;;18.70;99.90;;;;;;5053803;28;19923;-82
2021/06/20 08:17:37;;;;;;;;;;;18.80;99.90;;;;;;5064239;28;19913;-80
2021/06/20 08:20:03;;;;;;;;;;;18.90;99.90;;;;;;5036732;28;20303;-80
2021/06/20 08:22:29;;;;;;;;;;;19.00;99.90;;;;;;5054237;28;19909;-82
2021/06/20 08:24:55;;;;;;;;;;;19.00;99.90;;;;;;5039176;28;19954;-83
2021/06/20 08:27:20;;;;;;;;;;;19.00;99.90;;;;;;5069660;28;19908;-83
2021/06/20 08:29:48;;;;;;;;;;;19.10;99.90;;;;;;5053851;28;19919;-81
2021/06/20 08:32:14;;;;;;;;;;;19.20;99.90;;;;;;5036368;28;20290;-80
2021/06/20 08:34:39;;;;;;;;;;;19.40;99.90;;;;;;5036084;28;19919;-79
2021/06/20 08:37:05;;;;;;;;;;;19.80;99.90;;;;;;5036060;28;19905;-81
2021/06/20 08:39:31;;;;;;;;;;;20.00;99.90;;;;;;5034216;28;19912;-84
2021/06/20 08:41:56;;;;;;;;;;;20.10;99.90;;;;;;5043971;28;19916;-82
2021/06/20 08:44:31;;;;;;;;;;;20.10;99.90;;;;;;5050481;28;20303;-82
2021/06/20 08:46:58;;;;;;;;;;;20.00;99.90;;;;;;5043893;28;19916;-81
2021/06/20 08:49:24;;;;;;;;;;;20.00;99.90;;;;;;5055075;28;19990;-81
2021/06/20 08:51:51;;;;;;;;;;;20.00;99.90;;;;;;5035965;28;20196;-81
2021/06/20 08:54:18;;;;;;;;;;;20.00;99.90;;;;;;5052996;28;19909;-79
2021/06/20 08:56:44;;;;;;;;;;;20.00;99.90;;;;;;5052670;28;19999;-81
2021/06/20 08:59:13;;;;;;;;;;;20.00;99.90;;;;;;5051562;28;20214;-81
2021/06/20 09:01:38;;;;;;;;;;;20.10;99.90;;;;;;5048092;28;19913;-80
2021/06/20 09:04:04;;;;;;;;;;;20.40;99.90;;;;;;5059898;28;19912;-80
2021/06/20 09:06:29;;;;;;;;;;;20.60;99.90;;;;;;5058468;28;19909;-80
2021/06/20 09:09:00;;;;;;;;;;;20.70;99.90;;;;;;5065864;28;20214;-80
2021/06/20 09:11:33;;;;;;;;;;;20.70;99.90;;;;;;5056406;28;19920;-81
2021/06/20 09:14:04;;;;;;;;;;;20.60;99.90;;;;;;5047033;28;19917;-79
2021/06/20 09:16:30;;;;;;;;;;;20.60;99.90;;;;;;5042131;28;20007;-82
2021/06/20 09:18:56;;;;;;;;;;;20.60;99.90;;;;;;5063961;28;20008;-80
2021/06/20 09:21:27;;;;;;;;;;;20.60;99.90;;;;;;5036353;28;19982;-81
2021/06/20 09:23:53;;;;;;;;;;;20.70;99.90;;;;;;5043686;28;19909;-84
2021/06/20 09:26:30;;;;;;;;;;;20.90;99.90;;;;;;5063704;28;19913;-81
2021/06/20 09:28:56;;;;;;;;;;;20.90;99.90;;;;;;5047137;28;19913;-80
2021/06/20 09:31:22;;;;;;;;;;;20.70;99.90;;;;;;5069109;28;20354;-80
2021/06/20 09:33:48;;;;;;;;;;;20.60;99.90;;;;;;5072894;28;20294;-80
2021/06/20 09:36:13;;;;;;;;;;;20.40;99.90;;;;;;5033023;28;19916;-80
2021/06/20 09:38:39;;;;;;;;;;;20.30;99.90;;;;;;5039108;28;19936;-80
2021/06/20 09:41:09;;;;;;;;;;;20.20;99.90;;;;;;5039037;28;19912;-80
2021/06/20 09:43:35;;;;;;;;;;;20.10;99.90;;;;;;5057101;28;19995;-81
2021/06/20 09:46:02;;;;;;;;;;;20.00;99.90;;;;;;5038697;28;19908;-81
2021/06/20 09:48:28;;;;;;;;;;;20.00;99.90;;;;;;5068748;28;19905;-81
2021/06/20 09:50:55;;;;;;;;;;;19.90;99.90;;;;;;5062900;28;19991;-82
2021/06/20 09:53:38;;;;;;;;;;;19.90;99.90;;;;;;5071634;28;20194;-80
2021/06/20 09:56:16;;;;;;;;;;;19.90;99.90;;;;;;5056719;28;20264;-81
2021/06/20 09:58:44;;;;;;;;;;;19.80;99.90;;;;;;5066308;28;19962;-79
2021/06/20 10:01:10;;;;;;;;;;;19.80;99.90;;;;;;5055014;28;19912;-80
2021/06/20 10:03:36;;;;;;;;;;;20.00;99.90;;;;;;5056198;28;19909;-79
2021/06/20 10:06:02;;;;;;;;;;;20.20;99.90;;;;;;5048544;28;19904;-81
2021/06/20 10:08:27;;;;;;;;;;;20.40;99.90;;;;;;5064273;28;19985;-79
2021/06/20 10:10:53;;;;;;;;;;;20.60;99.90;;;;;;5044167;28;19909;-80
2021/06/20 10:13:19;;;;;;;;;;;20.80;99.90;;;;;;5037310;28;19908;-80
2021/06/20 10:15:44;;;;;;;;;;;20.70;99.90;;;;;;5057092;28;19917;-80
2021/06/20 10:18:12;;;;;;;;;;;20.80;99.90;;;;;;5038871;28;19940;-79
2021/06/20 10:20:38;;;;;;;;;;;20.80;99.90;;;;;;5070977;28;19999;-80
2021/06/20 10:23:04;;;;;;;;;;;20.80;99.90;;;;;;5055605;28;20376;-82
2021/06/20 10:25:37;;;;;;;;;;;20.80;99.90;;;;;;5037601;28;19915;-79
2021/06/20 10:28:05;;;;;;;;;;;20.90;99.90;;;;;;5070853;28;19909;-79
2021/06/20 10:30:34;;;;;;;;;;;21.00;99.90;;;;;;5037846;28;19912;-80
2021/06/20 10:33:09;;;;;;;;;;;21.20;99.90;;;;;;5054506;28;20652;-82
2021/06/20 10:35:35;;;;;;;;;;;21.30;99.90;;;;;;5054363;28;20010;-80
2021/06/20 10:38:01;;;;;;;;;;;21.60;99.90;;;;;;5054073;28;19923;-79
2021/06/20 10:40:29;;;;;;;;;;;21.90;99.90;;;;;;5055687;28;20211;-81
2021/06/20 10:42:56;;;;;;;;;;;21.90;99.90;;;;;;5057267;28;19915;-78
2021/06/20 10:45:28;;;;;;;;;;;22.00;99.90;;;;;;5054442;28;19920;-79
2021/06/20 10:47:54;;;;;;;;;;;21.90;99.90;;;;;;5035129;28;20333;-81
2021/06/20 10:50:19;;;;;;;;;;;21.80;99.90;;;;;;5054602;28;19909;-78
2021/06/20 10:52:55;;;;;;;;;;;21.80;99.90;;;;;;5055550;28;19978;-83
2021/06/20 10:55:20;;;;;;;;;;;21.60;99.90;;;;;;5054617;28;20232;-79
2021/06/20 10:57:48;;;;;;;;;;;21.50;99.90;;;;;;5077467;28;19967;-79
2021/06/20 11:00:34;;;;;;;;;;;21.50;99.90;;;;;;5054971;28;19908;-85
2021/06/20 11:03:07;;;;;;;;;;;21.20;99.90;;;;;;5042697;28;19909;-82
2021/06/20 11:05:41;;;;;;;;;;;21.10;99.90;;;;;;5054236;28;19963;-81
2021/06/20 11:08:07;;;;;;;;;;;20.90;99.90;;;;;;5038443;28;19908;-80
2021/06/20 11:10:33;;;;;;;;;;;20.90;99.90;;;;;;5061818;28;20365;-80
2021/06/20 11:12:58;;;;;;;;;;;20.80;99.90;;;;;;5041216;28;19908;-80
2021/06/20 11:15:25;;;;;;;;;;;20.60;99.90;;;;;;5036575;28;19913;-82
2021/06/20 11:17:51;;;;;;;;;;;20.60;99.90;;;;;;5055576;28;19989;-82
2021/06/20 11:20:16;;;;;;;;;;;20.60;99.90;;;;;;5040709;28;19916;-79
2021/06/20 11:22:42;;;;;;;;;;;20.60;99.90;;;;;;5054554;28;19909;-80
2021/06/20 11:25:08;;;;;;;;;;;20.50;99.90;;;;;;5070287;28;19916;-80
2021/06/20 11:27:33;;;;;;;;;;;20.60;99.90;;;;;;5049130;28;19963;-80
2021/06/20 11:29:59;;;;;;;;;;;20.80;99.90;;;;;;5045871;28;19927;-86
2021/06/20 11:32:26;;;;;;;;;;;20.90;99.90;;;;;;5036432;28;19905;-81
2021/06/20 11:34:54;;;;;;;;;;;21.20;99.90;;;;;;5054760;28;20004;-78
2021/06/20 11:37:27;;;;;;;;;;;21.50;99.90;;;;;;5069629;28;20087;-83
2021/06/20 11:39:54;;;;;;;;;;;21.60;99.90;;;;;;5053808;28;19916;-82
2021/06/20 11:42:27;;;;;;;;;;;21.40;99.90;;;;;;5033208;28;19974;-80
2021/06/20 11:44:57;;;;;;;;;;;21.30;99.90;;;;;;5050091;28;19944;-81
2021/06/20 11:47:32;;;;;;;;;;;21.50;99.90;;;;;;5052043;28;19912;-80
2021/06/20 11:50:17;;;;;;;;;;;21.70;99.90;;;;;;5047569;28;19909;-80
2021/06/20 11:52:46;;;;;;;;;;;21.60;99.90;;;;;;5048210;28;19908;-79
2021/06/20 11:55:12;;;;;;;;;;;21.80;99.90;;;;;;5036749;28;19924;-81
2021/06/20 11:57:38;;;;;;;;;;;21.60;99.90;;;;;;5037133;28;19905;-80
2021/06/20 12:00:08;;;;;;;;;;;21.90;99.90;;;;;;5053811;28;19905;-80
2021/06/20 12:02:33;;;;;;;;;;;22.10;99.90;;;;;;5053889;28;20310;-83
2021/06/20 12:04:59;;;;;;;;;;;22.00;99.90;;;;;;5048957;28;19955;-84
2021/06/20 12:07:25;;;;;;;;;;;22.10;99.90;;;;;;5049618;28;20287;-80
2021/06/20 12:09:51;;;;;;;;;;;21.80;99.90;;;;;;5041421;28;19905;-81
2021/06/20 12:12:18;;;;;;;;;;;21.40;99.90;;;;;;5046559;28;19944;-81
2021/06/20 12:14:44;;;;;;;;;;;21.20;99.90;;;;;;5068879;28;19958;-79
2021/06/20 12:17:14;;;;;;;;;;;21.20;99.90;;;;;;5059560;28;20000;-79
2021/06/20 12:19:40;;;;;;;;;;;21.00;99.90;;;;;;5050786;28;20046;-80
2021/06/20 12:22:10;;;;;;;;;;;21.00;99.90;;;;;;5036262;28;20362;-79
2021/06/20 12:24:40;;;;;;;;;;;20.90;99.90;;;;;;5062317;28;19917;-80
2021/06/20 12:27:06;;;;;;;;;;;20.90;99.90;;;;;;5065989;28;19970;-79
2021/06/20 12:29:33;;;;;;;;;;;21.00;99.90;;;;;;5040001;28;20003;-78
2021/06/20 12:32:00;;;;;;;;;;;21.10;99.90;;;;;;5036481;28;19904;-79
2021/06/20 12:34:26;;;;;;;;;;;21.10;99.90;;;;;;5056304;28;20009;-79
2021/06/20 12:36:58;;;;;;;;;;;21.00;99.90;;;;;;5058911;28;19913;-79
2021/06/20 12:39:24;;;;;;;;;;;20.90;99.90;;;;;;5070276;28;19920;-79
2021/06/20 12:41:57;;;;;;;;;;;21.00;99.90;;;;;;5056387;28;19904;-79
2021/06/20 12:44:24;;;;;;;;;;;21.00;99.90;;;;;;5062149;28;20041;-80
2021/06/20 12:46:52;;;;;;;;;;;21.00;99.90;;;;;;5056755;28;20739;-80
2021/06/20 12:49:17;;;;;;;;;;;20.90;99.90;;;;;;5038865;28;20222;-80
2021/06/20 12:51:50;;;;;;;;;;;21.00;99.90;;;;;;5044435;28;19912;-80
2021/06/20 12:54:16;;;;;;;;;;;21.00;99.90;;;;;;5056642;28;19912;-81
2021/06/20 12:56:41;;;;;;;;;;;21.10;99.90;;;;;;5056299;28;19928;-79
2021/06/20 12:59:08;;;;;;;;;;;21.30;99.90;;;;;;5058756;28;19916;-80
2021/06/20 13:01:38;;;;;;;;;;;21.40;99.90;;;;;;5063233;28;19912;-81
2021/06/20 13:04:12;;;;;;;;;;;21.60;99.90;;;;;;5060927;28;19915;-79
2021/06/20 13:06:39;;;;;;;;;;;21.70;99.90;;;;;;5075559;28;19924;-81
2021/06/20 13:09:06;;;;;;;;;;;21.70;99.90;;;;;;5061683;28;19913;-80
2021/06/20 13:11:32;;;;;;;;;;;21.70;99.90;;;;;;5078833;28;20226;-79
2021/06/20 13:14:11;;;;;;;;;;;21.70;99.90;;;;;;5061959;28;19941;-80
2021/06/20 13:16:36;;;;;;;;;;;21.80;99.90;;;;;;5062874;28;19916;-80
2021/06/20 13:19:02;;;;;;;;;;;21.70;99.90;;;;;;5046820;28;19916;-78
2021/06/20 13:21:29;;;;;;;;;;;21.70;99.90;;;;;;5058508;28;19913;-80
2021/06/20 13:23:55;;;;;;;;;;;21.60;99.90;;;;;;5078480;28;19920;-79
2021/06/20 13:26:20;;;;;;;;;;;21.60;99.90;;;;;;5046295;28;19920;-80
2021/06/20 13:28:46;;;;;;;;;;;21.60;99.90;;;;;;5040071;28;19913;-78
2021/06/20 13:31:11;;;;;;;;;;;21.80;99.90;;;;;;5059601;28;20363;-80
2021/06/20 13:33:37;;;;;;;;;;;21.90;99.90;;;;;;5059949;28;19914;-79
2021/06/20 13:36:03;;;;;;;;;;;21.90;99.90;;;;;;5046323;28;19917;-79
2021/06/20 13:38:28;;;;;;;;;;;22.00;99.90;;;;;;5059163;28;19954;-80
2021/06/20 13:40:54;;;;;;;;;;;21.90;99.90;;;;;;5059796;28;19909;-82
2021/06/20 13:43:19;;;;;;;;;;;22.00;99.90;;;;;;5046963;28;20203;-79
2021/06/20 13:45:45;;;;;;;;;;;22.00;99.90;;;;;;5065047;28;19909;-79
2021/06/20 13:48:11;;;;;;;;;;;22.00;99.90;;;;;;5051355;28;19909;-77
2021/06/20 13:50:36;;;;;;;;;;;21.80;99.90;;;;;;5048683;28;19931;-79
2021/06/20 13:53:02;;;;;;;;;;;21.70;99.90;;;;;;5047692;28;19938;-78
2021/06/20 13:55:28;;;;;;;;;;;21.60;99.90;;;;;;5069160;28;19913;-78
2021/06/20 13:57:53;;;;;;;;;;;21.50;99.90;;;;;;5053743;28;19909;-80
2021/06/20 14:00:19;;;;;;;;;;;21.20;99.90;;;;;;5046358;28;19912;-80
2021/06/20 14:02:45;;;;;;;;;;;21.10;99.90;;;;;;5060987;28;19904;-79
2021/06/20 14:05:11;;;;;;;;;;;21.00;99.90;;;;;;5049175;28;19908;-79
2021/06/20 14:07:37;;;;;;;;;;;21.00;99.90;;;;;;5053360;28;19913;-79
2021/06/20 14:10:04;;;;;;;;;;;20.90;99.90;;;;;;5064452;28;20075;-79
2021/06/20 14:12:29;;;;;;;;;;;20.90;99.90;;;;;;5068606;28;20355;-78
2021/06/20 14:14:55;;;;;;;;;;;20.90;99.90;;;;;;5060122;28;19940;-79